sensor_id;sensor_type;location;lat;lon;timestamp;P1;durP1;ratioP1;P2;durP2;ratioP2
26696;SDS011;14312;52.614;13.496;2023-04-15T00:01:03;9.25;;;8.35;;
26696;SDS011;14312;52.614;13.496;2023-04-15T00:03:50;8.60;;;7.70;;
26696;SDS011;14312;52.614;13.496;2023-04-15T00:06:38;9.05;;;8.15;;
26696;SDS011;14312;52.614;13.496;2023-04-15T00:09:26;9.70;;;8.70;;
26696;SDS011;14312;52.614;13.496;2023-04-15T00:12:12;10.07;;;9.07;;
26696;SDS011;14312;52.614;13.496;2023-04-15T00:14:58;10.10;;;9.10;;
26696;SDS011;14312;52.614;13.496;2023-04-15T00:17:44;10.10;;;9.20;;
26696;SDS011;14312;52.614;13.496;2023-04-15T00:20:30;10.10;;;9.10;;
26696;SDS011;14312;52.614;13.496;2023-04-15T00:23:17;9.60;;;8.35;;
26696;SDS011;14312;52.614;13.496;2023-04-15T00:26:03;10.60;;;9.60;;
26696;SDS011;14312;52.614;13.496;2023-04-15T00:28:49;10.05;;;9.10;;
26696;SDS011;14312;52.614;13.496;2023-04-15T00:31:35;10.70;;;9.27;;
26696;SDS011;14312;52.614;13.496;2023-04-15T00:34:21;11.07;;;9.90;;
26696;SDS011;14312;52.614;13.496;2023-04-15T00:37:08;11.73;;;10.52;;
26696;SDS011;14312;52.614;13.496;2023-04-15T00:39:55;11.65;;;10.45;;
26696;SDS011;14312;52.614;13.496;2023-04-15T00:42:41;10.25;;;9.25;;
26696;SDS011;14312;52.614;13.496;2023-04-15T00:45:27;11.45;;;10.27;;
26696;SDS011;14312;52.614;13.496;2023-04-15T00:48:13;10.73;;;9.63;;
26696;SDS011;14312;52.614;13.496;2023-04-15T00:51:01;11.93;;;10.68;;
26696;SDS011;14312;52.614;13.496;2023-04-15T00:53:47;11.68;;;10.48;;
26696;SDS011;14312;52.614;13.496;2023-04-15T00:56:36;11.95;;;10.80;;
26696;SDS011;14312;52.614;13.496;2023-04-15T00:59:23;12.20;;;10.90;;
26696;SDS011;14312;52.614;13.496;2023-04-15T01:02:09;12.60;;;11.38;;
26696;SDS011;14312;52.614;13.496;2023-04-15T01:04:55;12.55;;;11.13;;
26696;SDS011;14312;52.614;13.496;2023-04-15T01:07:41;12.48;;;10.85;;
26696;SDS011;14312;52.614;13.496;2023-04-15T01:10:27;12.73;;;11.32;;
26696;SDS011;14312;52.614;13.496;2023-04-15T01:13:14;12.15;;;10.85;;
26696;SDS011;14312;52.614;13.496;2023-04-15T01:16:00;12.05;;;10.57;;
26696;SDS011;14312;52.614;13.496;2023-04-15T01:18:47;12.65;;;11.35;;
26696;SDS011;14312;52.614;13.496;2023-04-15T01:21:37;12.02;;;10.75;;
26696;SDS011;14312;52.614;13.496;2023-04-15T01:24:25;13.93;;;11.30;;
26696;SDS011;14312;52.614;13.496;2023-04-15T01:27:12;12.10;;;10.60;;
26696;SDS011;14312;52.614;13.496;2023-04-15T01:29:58;11.52;;;10.30;;
26696;SDS011;14312;52.614;13.496;2023-04-15T01:32:44;12.02;;;10.82;;
26696;SDS011;14312;52.614;13.496;2023-04-15T01:35:30;11.35;;;10.15;;
26696;SDS011;14312;52.614;13.496;2023-04-15T01:38:16;12.90;;;11.52;;
26696;SDS011;14312;52.614;13.496;2023-04-15T01:41:02;12.70;;;11.40;;
26696;SDS011;14312;52.614;13.496;2023-04-15T01:43:52;13.73;;;12.10;;
26696;SDS011;14312;52.614;13.496;2023-04-15T01:46:39;13.63;;;11.93;;
26696;SDS011;14312;52.614;13.496;2023-04-15T01:49:26;13.55;;;12.15;;
26696;SDS011;14312;52.614;13.496;2023-04-15T01:52:12;13.18;;;11.35;;
26696;SDS011;14312;52.614;13.496;2023-04-15T01:54:58;12.13;;;10.85;;
26696;SDS011;14312;52.614;13.496;2023-04-15T01:57:44;12.43;;;10.35;;
26696;SDS011;14312;52.614;13.496;2023-04-15T02:00:31;12.68;;;11.13;;
26696;SDS011;14312;52.614;13.496;2023-04-15T02:03:17;12.82;;;11.30;;
26696;SDS011;14312;52.614;13.496;2023-04-15T02:06:03;12.63;;;11.30;;
26696;SDS011;14312;52.614;13.496;2023-04-15T02:08:50;12.25;;;10.98;;
26696;SDS011;14312;52.614;13.496;2023-04-15T02:11:36;12.10;;;10.88;;
26696;SDS011;14312;52.614;13.496;2023-04-15T02:14:23;12.02;;;10.73;;
26696;SDS011;14312;52.614;13.496;2023-04-15T02:17:09;12.05;;;10.75;;
26696;SDS011;14312;52.614;13.496;2023-04-15T02:19:55;11.73;;;10.52;;
26696;SDS011;14312;52.614;13.496;2023-04-15T02:22:41;12.63;;;10.18;;
26696;SDS011;14312;52.614;13.496;2023-04-15T02:25:28;11.63;;;10.43;;
26696;SDS011;14312;52.614;13.496;2023-04-15T02:28:13;13.00;;;11.35;;
26696;SDS011;14312;52.614;13.496;2023-04-15T02:31:00;13.07;;;11.23;;
26696;SDS011;14312;52.614;13.496;2023-04-15T02:33:50;12.93;;;11.55;;
26696;SDS011;14312;52.614;13.496;2023-04-15T02:36:36;11.27;;;10.13;;
26696;SDS011;14312;52.614;13.496;2023-04-15T02:39:23;10.65;;;9.55;;
26696;SDS011;14312;52.614;13.496;2023-04-15T02:42:09;11.48;;;10.27;;
26696;SDS011;14312;52.614;13.496;2023-04-15T02:44:56;11.48;;;10.27;;
26696;SDS011;14312;52.614;13.496;2023-04-15T02:47:42;11.13;;;9.82;;
26696;SDS011;14312;52.614;13.496;2023-04-15T02:50:30;10.75;;;9.65;;
26696;SDS011;14312;52.614;13.496;2023-04-15T02:53:16;11.23;;;10.02;;
26696;SDS011;14312;52.614;13.496;2023-04-15T02:56:02;12.70;;;11.02;;
26696;SDS011;14312;52.614;13.496;2023-04-15T02:58:48;11.77;;;10.57;;
26696;SDS011;14312;52.614;13.496;2023-04-15T03:01:35;11.60;;;10.32;;
26696;SDS011;14312;52.614;13.496;2023-04-15T03:04:21;11.88;;;10.68;;
26696;SDS011;14312;52.614;13.496;2023-04-15T03:07:07;11.45;;;10.30;;
26696;SDS011;14312;52.614;13.496;2023-04-15T03:09:53;11.10;;;9.90;;
26696;SDS011;14312;52.614;13.496;2023-04-15T03:12:39;11.27;;;9.80;;
26696;SDS011;14312;52.614;13.496;2023-04-15T03:15:25;11.38;;;9.80;;
26696;SDS011;14312;52.614;13.496;2023-04-15T03:18:11;11.50;;;10.30;;
26696;SDS011;14312;52.614;13.496;2023-04-15T03:20:57;10.70;;;9.60;;
26696;SDS011;14312;52.614;13.496;2023-04-15T03:23:43;11.05;;;9.85;;
26696;SDS011;14312;52.614;13.496;2023-04-15T03:26:30;10.75;;;9.75;;
26696;SDS011;14312;52.614;13.496;2023-04-15T03:29:16;10.65;;;9.55;;
26696;SDS011;14312;52.614;13.496;2023-04-15T03:32:02;10.35;;;9.27;;
26696;SDS011;14312;52.614;13.496;2023-04-15T03:34:48;10.27;;;8.98;;
26696;SDS011;14312;52.614;13.496;2023-04-15T03:37:34;11.25;;;9.93;;
26696;SDS011;14312;52.614;13.496;2023-04-15T03:40:20;9.63;;;8.57;;
26696;SDS011;14312;52.614;13.496;2023-04-15T03:43:07;11.43;;;10.23;;
26696;SDS011;14312;52.614;13.496;2023-04-15T03:45:53;10.43;;;8.80;;
26696;SDS011;14312;52.614;13.496;2023-04-15T03:48:39;9.75;;;8.77;;
26696;SDS011;14312;52.614;13.496;2023-04-15T03:51:25;9.43;;;8.52;;
26696;SDS011;14312;52.614;13.496;2023-04-15T03:54:11;8.82;;;8.02;;
26696;SDS011;14312;52.614;13.496;2023-04-15T03:56:59;10.63;;;9.57;;
26696;SDS011;14312;52.614;13.496;2023-04-15T03:59:45;12.13;;;9.68;;
26696;SDS011;14312;52.614;13.496;2023-04-15T04:02:31;10.38;;;9.27;;
26696;SDS011;14312;52.614;13.496;2023-04-15T04:05:17;9.95;;;8.95;;
26696;SDS011;14312;52.614;13.496;2023-04-15T04:08:03;10.60;;;9.50;;
26696;SDS011;14312;52.614;13.496;2023-04-15T04:10:49;10.45;;;9.35;;
26696;SDS011;14312;52.614;13.496;2023-04-15T04:13:35;11.88;;;9.98;;
26696;SDS011;14312;52.614;13.496;2023-04-15T04:16:21;10.40;;;9.40;;
26696;SDS011;14312;52.614;13.496;2023-04-15T04:19:07;10.32;;;9.23;;
26696;SDS011;14312;52.614;13.496;2023-04-15T04:21:53;9.73;;;8.82;;
26696;SDS011;14312;52.614;13.496;2023-04-15T04:24:39;9.65;;;8.73;;
26696;SDS011;14312;52.614;13.496;2023-04-15T04:27:25;8.77;;;7.88;;
26696;SDS011;14312;52.614;13.496;2023-04-15T04:30:11;9.30;;;8.15;;
26696;SDS011;14312;52.614;13.496;2023-04-15T04:32:57;9.05;;;8.15;;
26696;SDS011;14312;52.614;13.496;2023-04-15T04:35:43;8.93;;;8.02;;
26696;SDS011;14312;52.614;13.496;2023-04-15T04:38:29;8.52;;;7.72;;
26696;SDS011;14312;52.614;13.496;2023-04-15T04:41:15;9.32;;;8.32;;
26696;SDS011;14312;52.614;13.496;2023-04-15T04:44:01;8.90;;;8.00;;
26696;SDS011;14312;52.614;13.496;2023-04-15T04:46:47;8.90;;;8.00;;
26696;SDS011;14312;52.614;13.496;2023-04-15T04:49:33;8.57;;;7.53;;
26696;SDS011;14312;52.614;13.496;2023-04-15T04:52:19;8.43;;;7.63;;
26696;SDS011;14312;52.614;13.496;2023-04-15T04:55:05;8.45;;;7.65;;
26696;SDS011;14312;52.614;13.496;2023-04-15T04:57:51;7.80;;;7.00;;
26696;SDS011;14312;52.614;13.496;2023-04-15T05:00:37;8.13;;;7.32;;
26696;SDS011;14312;52.614;13.496;2023-04-15T05:03:24;8.90;;;8.00;;
26696;SDS011;14312;52.614;13.496;2023-04-15T05:06:10;8.35;;;7.55;;
26696;SDS011;14312;52.614;13.496;2023-04-15T05:08:56;8.02;;;7.30;;
26696;SDS011;14312;52.614;13.496;2023-04-15T05:11:42;7.25;;;6.55;;
26696;SDS011;14312;52.614;13.496;2023-04-15T05:14:28;7.63;;;6.93;;
26696;SDS011;14312;52.614;13.496;2023-04-15T05:17:14;7.63;;;6.93;;
26696;SDS011;14312;52.614;13.496;2023-04-15T05:20:00;7.15;;;6.40;;
26696;SDS011;14312;52.614;13.496;2023-04-15T05:22:47;7.45;;;6.75;;
26696;SDS011;14312;52.614;13.496;2023-04-15T05:25:33;7.15;;;6.45;;
26696;SDS011;14312;52.614;13.496;2023-04-15T05:28:19;7.28;;;6.57;;
26696;SDS011;14312;52.614;13.496;2023-04-15T05:31:05;6.88;;;6.25;;
26696;SDS011;14312;52.614;13.496;2023-04-15T05:33:51;6.45;;;5.85;;
26696;SDS011;14312;52.614;13.496;2023-04-15T05:36:37;6.95;;;6.25;;
26696;SDS011;14312;52.614;13.496;2023-04-15T05:39:23;7.03;;;6.25;;
26696;SDS011;14312;52.614;13.496;2023-04-15T05:42:09;6.40;;;5.80;;
26696;SDS011;14312;52.614;13.496;2023-04-15T05:44:56;6.65;;;6.05;;
26696;SDS011;14312;52.614;13.496;2023-04-15T05:47:41;6.95;;;6.35;;
26696;SDS011;14312;52.614;13.496;2023-04-15T05:50:27;6.82;;;6.20;;
26696;SDS011;14312;52.614;13.496;2023-04-15T05:53:13;6.78;;;6.18;;
26696;SDS011;14312;52.614;13.496;2023-04-15T05:55:59;6.43;;;5.82;;
26696;SDS011;14312;52.614;13.496;2023-04-15T05:58:46;6.13;;;5.57;;
26696;SDS011;14312;52.614;13.496;2023-04-15T06:01:32;5.65;;;5.15;;
26696;SDS011;14312;52.614;13.496;2023-04-15T06:04:18;7.50;;;6.18;;
26696;SDS011;14312;52.614;13.496;2023-04-15T06:07:04;5.72;;;5.10;;
26696;SDS011;14312;52.614;13.496;2023-04-15T06:09:51;5.63;;;5.13;;
26696;SDS011;14312;52.614;13.496;2023-04-15T06:12:37;5.93;;;5.32;;
26696;SDS011;14312;52.614;13.496;2023-04-15T06:15:23;5.90;;;5.30;;
26696;SDS011;14312;52.614;13.496;2023-04-15T06:18:08;6.05;;;5.50;;
26696;SDS011;14312;52.614;13.496;2023-04-15T06:20:54;6.22;;;5.63;;
26696;SDS011;14312;52.614;13.496;2023-04-15T06:23:40;6.38;;;5.78;;
26696;SDS011;14312;52.614;13.496;2023-04-15T06:26:27;5.68;;;5.20;;
26696;SDS011;14312;52.614;13.496;2023-04-15T06:29:13;5.03;;;4.53;;
26696;SDS011;14312;52.614;13.496;2023-04-15T06:31:59;5.63;;;4.95;;
26696;SDS011;14312;52.614;13.496;2023-04-15T06:34:45;5.60;;;5.10;;
26696;SDS011;14312;52.614;13.496;2023-04-15T06:37:31;5.35;;;4.85;;
26696;SDS011;14312;52.614;13.496;2023-04-15T06:40:17;5.40;;;4.90;;
26696;SDS011;14312;52.614;13.496;2023-04-15T06:43:03;5.53;;;5.03;;
26696;SDS011;14312;52.614;13.496;2023-04-15T06:45:49;4.97;;;4.55;;
26696;SDS011;14312;52.614;13.496;2023-04-15T06:48:35;4.82;;;4.43;;
26696;SDS011;14312;52.614;13.496;2023-04-15T06:51:21;5.32;;;4.78;;
26696;SDS011;14312;52.614;13.496;2023-04-15T06:54:08;5.60;;;5.13;;
26696;SDS011;14312;52.614;13.496;2023-04-15T06:56:54;4.93;;;4.43;;
26696;SDS011;14312;52.614;13.496;2023-04-15T06:59:40;5.20;;;4.70;;
26696;SDS011;14312;52.614;13.496;2023-04-15T07:02:27;5.30;;;4.90;;
26696;SDS011;14312;52.614;13.496;2023-04-15T07:05:13;5.28;;;4.78;;
26696;SDS011;14312;52.614;13.496;2023-04-15T07:08:01;5.60;;;5.10;;
26696;SDS011;14312;52.614;13.496;2023-04-15T07:10:47;5.28;;;4.78;;
26696;SDS011;14312;52.614;13.496;2023-04-15T07:13:33;5.45;;;4.95;;
26696;SDS011;14312;52.614;13.496;2023-04-15T07:16:19;5.53;;;5.03;;
26696;SDS011;14312;52.614;13.496;2023-04-15T07:19:05;5.18;;;4.75;;
26696;SDS011;14312;52.614;13.496;2023-04-15T07:21:52;5.45;;;4.95;;
26696;SDS011;14312;52.614;13.496;2023-04-15T07:24:38;5.63;;;5.13;;
26696;SDS011;14312;52.614;13.496;2023-04-15T07:27:23;5.93;;;5.43;;
26696;SDS011;14312;52.614;13.496;2023-04-15T07:30:11;5.78;;;5.28;;
26696;SDS011;14312;52.614;13.496;2023-04-15T07:32:57;5.75;;;5.25;;
26696;SDS011;14312;52.614;13.496;2023-04-15T07:35:43;5.60;;;5.10;;
26696;SDS011;14312;52.614;13.496;2023-04-15T07:38:29;5.45;;;4.95;;
26696;SDS011;14312;52.614;13.496;2023-04-15T07:41:16;5.65;;;5.15;;
26696;SDS011;14312;52.614;13.496;2023-04-15T07:44:02;5.10;;;4.70;;
26696;SDS011;14312;52.614;13.496;2023-04-15T07:46:49;5.38;;;4.88;;
26696;SDS011;14312;52.614;13.496;2023-04-15T07:49:35;5.43;;;4.95;;
26696;SDS011;14312;52.614;13.496;2023-04-15T07:52:21;6.40;;;5.80;;
26696;SDS011;14312;52.614;13.496;2023-04-15T07:55:07;5.38;;;4.85;;
26696;SDS011;14312;52.614;13.496;2023-04-15T07:57:54;6.03;;;5.43;;
26696;SDS011;14312;52.614;13.496;2023-04-15T08:00:40;5.43;;;4.97;;
26696;SDS011;14312;52.614;13.496;2023-04-15T08:03:26;5.70;;;5.20;;
26696;SDS011;14312;52.614;13.496;2023-04-15T08:06:12;6.07;;;5.45;;
26696;SDS011;14312;52.614;13.496;2023-04-15T08:08:58;5.38;;;4.78;;
26696;SDS011;14312;52.614;13.496;2023-04-15T08:11:46;5.63;;;5.13;;
26696;SDS011;14312;52.614;13.496;2023-04-15T08:14:33;5.85;;;5.35;;
26696;SDS011;14312;52.614;13.496;2023-04-15T08:17:20;6.05;;;5.32;;
26696;SDS011;14312;52.614;13.496;2023-04-15T08:20:06;6.22;;;5.68;;
26696;SDS011;14312;52.614;13.496;2023-04-15T08:22:52;5.07;;;4.60;;
26696;SDS011;14312;52.614;13.496;2023-04-15T08:25:38;5.50;;;5.05;;
26696;SDS011;14312;52.614;13.496;2023-04-15T08:28:24;6.45;;;5.90;;
26696;SDS011;14312;52.614;13.496;2023-04-15T08:31:10;6.35;;;5.75;;
26696;SDS011;14312;52.614;13.496;2023-04-15T08:33:57;5.90;;;5.40;;
26696;SDS011;14312;52.614;13.496;2023-04-15T08:36:43;5.70;;;5.20;;
26696;SDS011;14312;52.614;13.496;2023-04-15T08:39:29;5.45;;;5.03;;
26696;SDS011;14312;52.614;13.496;2023-04-15T08:42:16;5.40;;;4.95;;
26696;SDS011;14312;52.614;13.496;2023-04-15T08:45:04;5.88;;;5.38;;
26696;SDS011;14312;52.614;13.496;2023-04-15T08:47:50;5.53;;;5.03;;
26696;SDS011;14312;52.614;13.496;2023-04-15T08:50:41;6.10;;;5.57;;
26696;SDS011;14312;52.614;13.496;2023-04-15T08:53:28;5.53;;;5.13;;
26696;SDS011;14312;52.614;13.496;2023-04-15T08:56:15;5.88;;;5.30;;
26696;SDS011;14312;52.614;13.496;2023-04-15T08:59:01;6.18;;;5.57;;
26696;SDS011;14312;52.614;13.496;2023-04-15T09:01:50;6.35;;;5.72;;
26696;SDS011;14312;52.614;13.496;2023-04-15T09:04:37;5.65;;;5.15;;
26696;SDS011;14312;52.614;13.496;2023-04-15T09:07:24;5.93;;;5.43;;
26696;SDS011;14312;52.614;13.496;2023-04-15T09:10:10;5.03;;;4.63;;
26696;SDS011;14312;52.614;13.496;2023-04-15T09:12:56;5.65;;;5.00;;
26696;SDS011;14312;52.614;13.496;2023-04-15T09:15:43;5.30;;;4.90;;
26696;SDS011;14312;52.614;13.496;2023-04-15T09:18:29;5.68;;;5.07;;
26696;SDS011;14312;52.614;13.496;2023-04-15T09:21:16;5.70;;;5.20;;
26696;SDS011;14312;52.614;13.496;2023-04-15T09:24:03;5.80;;;5.30;;
26696;SDS011;14312;52.614;13.496;2023-04-15T09:26:53;5.85;;;5.35;;
26696;SDS011;14312;52.614;13.496;2023-04-15T09:29:42;6.57;;;5.43;;
26696;SDS011;14312;52.614;13.496;2023-04-15T09:32:28;5.85;;;5.32;;
26696;SDS011;14312;52.614;13.496;2023-04-15T09:35:14;5.85;;;5.35;;
26696;SDS011;14312;52.614;13.496;2023-04-15T09:38:01;6.13;;;5.63;;
26696;SDS011;14312;52.614;13.496;2023-04-15T09:40:47;5.50;;;5.10;;
26696;SDS011;14312;52.614;13.496;2023-04-15T09:43:37;5.28;;;4.78;;
26696;SDS011;14312;52.614;13.496;2023-04-15T09:46:40;5.78;;;5.32;;
26696;SDS011;14312;52.614;13.496;2023-04-15T09:49:27;5.57;;;5.07;;
26696;SDS011;14312;52.614;13.496;2023-04-15T09:52:13;6.38;;;5.30;;
26696;SDS011;14312;52.614;13.496;2023-04-15T09:54:59;6.00;;;5.50;;
26696;SDS011;14312;52.614;13.496;2023-04-15T09:57:45;5.32;;;4.90;;
26696;SDS011;14312;52.614;13.496;2023-04-15T10:00:31;5.22;;;4.82;;
26696;SDS011;14312;52.614;13.496;2023-04-15T10:03:21;5.63;;;5.15;;
26696;SDS011;14312;52.614;13.496;2023-04-15T10:06:09;5.70;;;5.20;;
26696;SDS011;14312;52.614;13.496;2023-04-15T10:08:59;5.28;;;4.88;;
26696;SDS011;14312;52.614;13.496;2023-04-15T10:11:45;4.90;;;4.50;;
26696;SDS011;14312;52.614;13.496;2023-04-15T10:14:34;6.03;;;5.43;;
26696;SDS011;14312;52.614;13.496;2023-04-15T10:17:22;5.70;;;5.20;;
26696;SDS011;14312;52.614;13.496;2023-04-15T10:20:12;5.80;;;5.30;;
26696;SDS011;14312;52.614;13.496;2023-04-15T10:22:59;5.85;;;5.35;;
26696;SDS011;14312;52.614;13.496;2023-04-15T10:25:47;5.50;;;5.05;;
26696;SDS011;14312;52.614;13.496;2023-04-15T10:28:36;5.75;;;5.25;;
26696;SDS011;14312;52.614;13.496;2023-04-15T10:31:23;5.50;;;5.10;;
26696;SDS011;14312;52.614;13.496;2023-04-15T10:34:09;5.28;;;4.88;;
26696;SDS011;14312;52.614;13.496;2023-04-15T10:36:56;5.80;;;5.15;;
26696;SDS011;14312;52.614;13.496;2023-04-15T10:39:46;5.50;;;5.00;;
26696;SDS011;14312;52.614;13.496;2023-04-15T10:42:33;6.18;;;5.57;;
26696;SDS011;14312;52.614;13.496;2023-04-15T10:45:20;5.53;;;5.03;;
26696;SDS011;14312;52.614;13.496;2023-04-15T10:48:06;5.30;;;4.88;;
26696;SDS011;14312;52.614;13.496;2023-04-15T10:50:56;5.47;;;4.97;;
26696;SDS011;14312;52.614;13.496;2023-04-15T10:53:45;5.47;;;5.00;;
26696;SDS011;14312;52.614;13.496;2023-04-15T10:56:31;5.90;;;4.85;;
26696;SDS011;14312;52.614;13.496;2023-04-15T10:59:17;5.45;;;4.95;;
26696;SDS011;14312;52.614;13.496;2023-04-15T11:02:07;5.07;;;4.53;;
26696;SDS011;14312;52.614;13.496;2023-04-15T11:13:20;4.95;;;4.55;;
26696;SDS011;14312;52.614;13.496;2023-04-15T11:16:07;4.68;;;4.30;;
26696;SDS011;14312;52.614;13.496;2023-04-15T11:18:53;4.88;;;4.47;;
26696;SDS011;14312;52.614;13.496;2023-04-15T11:21:40;4.13;;;3.83;;
26696;SDS011;14312;52.614;13.496;2023-04-15T11:24:26;4.60;;;4.20;;
26696;SDS011;14312;52.614;13.496;2023-04-15T11:27:22;5.05;;;4.65;;
26696;SDS011;14312;52.614;13.496;2023-04-15T11:30:18;4.90;;;4.40;;
26696;SDS011;14312;52.614;13.496;2023-04-15T11:33:10;4.45;;;4.15;;
26696;SDS011;14312;52.614;13.496;2023-04-15T11:35:56;4.82;;;4.43;;
26696;SDS011;14312;52.614;13.496;2023-04-15T11:38:45;4.68;;;4.28;;
26696;SDS011;14312;52.614;13.496;2023-04-15T11:41:32;4.82;;;4.10;;
26696;SDS011;14312;52.614;13.496;2023-04-15T11:44:20;4.20;;;3.90;;
26696;SDS011;14312;52.614;13.496;2023-04-15T11:47:27;4.80;;;4.40;;
26696;SDS011;14312;52.614;13.496;2023-04-15T11:50:19;4.10;;;3.80;;
26696;SDS011;14312;52.614;13.496;2023-04-15T11:53:08;4.53;;;4.13;;
26696;SDS011;14312;52.614;13.496;2023-04-15T11:55:56;4.05;;;3.75;;
26696;SDS011;14312;52.614;13.496;2023-04-15T11:58:41;4.22;;;3.88;;
26696;SDS011;14312;52.614;13.496;2023-04-15T12:01:31;3.92;;;3.63;;
26696;SDS011;14312;52.614;13.496;2023-04-15T12:04:23;4.13;;;3.72;;
26696;SDS011;14312;52.614;13.496;2023-04-15T12:07:09;4.40;;;4.00;;
26696;SDS011;14312;52.614;13.496;2023-04-15T12:09:57;4.43;;;4.07;;
26696;SDS011;14312;52.614;13.496;2023-04-15T12:12:43;4.65;;;4.25;;
26696;SDS011;14312;52.614;13.496;2023-04-15T12:15:36;4.70;;;4.30;;
26696;SDS011;14312;52.614;13.496;2023-04-15T12:18:23;4.63;;;4.07;;
26696;SDS011;14312;52.614;13.496;2023-04-15T12:21:10;4.75;;;4.32;;
26696;SDS011;14312;52.614;13.496;2023-04-15T12:23:56;4.25;;;3.85;;
26696;SDS011;14312;52.614;13.496;2023-04-15T12:26:47;4.40;;;4.00;;
26696;SDS011;14312;52.614;13.496;2023-04-15T12:29:35;4.53;;;4.13;;
26696;SDS011;14312;52.614;13.496;2023-04-15T12:32:22;4.80;;;4.40;;
26696;SDS011;14312;52.614;13.496;2023-04-15T12:35:08;4.50;;;3.90;;
26696;SDS011;14312;52.614;13.496;2023-04-15T12:37:54;4.15;;;3.85;;
26696;SDS011;14312;52.614;13.496;2023-04-15T12:40:40;4.72;;;4.32;;
26696;SDS011;14312;52.614;13.496;2023-04-15T12:43:26;4.38;;;3.97;;
26696;SDS011;14312;52.614;13.496;2023-04-15T12:46:12;4.57;;;4.18;;
26696;SDS011;14312;52.614;13.496;2023-04-15T12:49:00;3.90;;;3.60;;
26696;SDS011;14312;52.614;13.496;2023-04-15T12:51:49;3.83;;;3.50;;
26696;SDS011;14312;52.614;13.496;2023-04-15T12:54:38;3.60;;;3.30;;
26696;SDS011;14312;52.614;13.496;2023-04-15T12:57:24;3.67;;;3.38;;
26696;SDS011;14312;52.614;13.496;2023-04-15T13:00:10;3.80;;;3.50;;
26696;SDS011;14312;52.614;13.496;2023-04-15T13:02:56;3.88;;;3.58;;
26696;SDS011;14312;52.614;13.496;2023-04-15T13:05:42;3.70;;;3.40;;
26696;SDS011;14312;52.614;13.496;2023-04-15T13:08:28;4.25;;;3.78;;
26696;SDS011;14312;52.614;13.496;2023-04-15T13:11:14;3.90;;;3.50;;
26696;SDS011;14312;52.614;13.496;2023-04-15T13:14:01;3.90;;;3.60;;
26696;SDS011;14312;52.614;13.496;2023-04-15T13:16:48;3.97;;;3.67;;
26696;SDS011;14312;52.614;13.496;2023-04-15T13:19:34;4.00;;;3.70;;
26696;SDS011;14312;52.614;13.496;2023-04-15T13:22:21;3.88;;;3.58;;
26696;SDS011;14312;52.614;13.496;2023-04-15T13:25:07;3.88;;;3.58;;
26696;SDS011;14312;52.614;13.496;2023-04-15T13:27:54;3.97;;;3.67;;
26696;SDS011;14312;52.614;13.496;2023-04-15T13:30:40;4.03;;;3.63;;
26696;SDS011;14312;52.614;13.496;2023-04-15T13:33:26;3.75;;;3.45;;
26696;SDS011;14312;52.614;13.496;2023-04-15T13:36:12;4.05;;;3.70;;
26696;SDS011;14312;52.614;13.496;2023-04-15T13:38:58;4.28;;;3.50;;
26696;SDS011;14312;52.614;13.496;2023-04-15T13:41:44;3.65;;;3.33;;
26696;SDS011;14312;52.614;13.496;2023-04-15T13:44:30;3.65;;;3.35;;
26696;SDS011;14312;52.614;13.496;2023-04-15T13:47:17;3.97;;;3.65;;
26696;SDS011;14312;52.614;13.496;2023-04-15T13:50:04;3.65;;;3.35;;
26696;SDS011;14312;52.614;13.496;2023-04-15T13:52:51;3.58;;;3.28;;
26696;SDS011;14312;52.614;13.496;2023-04-15T13:55:37;3.70;;;3.05;;
26696;SDS011;14312;52.614;13.496;2023-04-15T13:58:26;4.00;;;3.70;;
26696;SDS011;14312;52.614;13.496;2023-04-15T14:01:12;3.53;;;3.22;;
26696;SDS011;14312;52.614;13.496;2023-04-15T14:03:58;4.32;;;3.47;;
26696;SDS011;14312;52.614;13.496;2023-04-15T14:06:44;3.70;;;3.40;;
26696;SDS011;14312;52.614;13.496;2023-04-15T14:09:30;3.53;;;3.22;;
26696;SDS011;14312;52.614;13.496;2023-04-15T14:12:16;3.50;;;3.20;;
26696;SDS011;14312;52.614;13.496;2023-04-15T14:15:02;3.22;;;3.03;;
26696;SDS011;14312;52.614;13.496;2023-04-15T14:17:48;3.42;;;3.22;;
26696;SDS011;14312;52.614;13.496;2023-04-15T14:20:34;3.33;;;3.13;;
26696;SDS011;14312;52.614;13.496;2023-04-15T14:23:20;3.47;;;3.17;;
26696;SDS011;14312;52.614;13.496;2023-04-15T14:26:06;3.28;;;2.97;;
26696;SDS011;14312;52.614;13.496;2023-04-15T14:28:52;2.95;;;2.65;;
26696;SDS011;14312;52.614;13.496;2023-04-15T14:31:38;3.28;;;2.97;;
26696;SDS011;14312;52.614;13.496;2023-04-15T14:34:24;2.75;;;2.55;;
26696;SDS011;14312;52.614;13.496;2023-04-15T14:37:10;3.15;;;2.88;;
26696;SDS011;14312;52.614;13.496;2023-04-15T14:39:56;3.13;;;2.65;;
26696;SDS011;14312;52.614;13.496;2023-04-15T14:42:42;2.90;;;2.70;;
26696;SDS011;14312;52.614;13.496;2023-04-15T14:45:29;3.00;;;2.80;;
26696;SDS011;14312;52.614;13.496;2023-04-15T14:48:15;2.78;;;2.58;;
26696;SDS011;14312;52.614;13.496;2023-04-15T14:51:01;2.97;;;2.58;;
26696;SDS011;14312;52.614;13.496;2023-04-15T14:53:47;2.70;;;2.50;;
26696;SDS011;14312;52.614;13.496;2023-04-15T14:56:33;2.85;;;2.60;;
26696;SDS011;14312;52.614;13.496;2023-04-15T14:59:19;2.97;;;2.78;;
26696;SDS011;14312;52.614;13.496;2023-04-15T15:02:05;3.15;;;2.85;;
26696;SDS011;14312;52.614;13.496;2023-04-15T15:04:51;3.33;;;3.03;;
26696;SDS011;14312;52.614;13.496;2023-04-15T15:07:37;2.97;;;2.78;;
26696;SDS011;14312;52.614;13.496;2023-04-15T15:10:25;3.50;;;3.20;;
26696;SDS011;14312;52.614;13.496;2023-04-15T15:13:11;3.10;;;2.90;;
26696;SDS011;14312;52.614;13.496;2023-04-15T15:15:57;3.30;;;3.10;;
26696;SDS011;14312;52.614;13.496;2023-04-15T15:18:43;3.20;;;3.00;;
26696;SDS011;14312;52.614;13.496;2023-04-15T15:21:29;2.67;;;2.47;;
26696;SDS011;14312;52.614;13.496;2023-04-15T15:24:15;3.25;;;2.80;;
26696;SDS011;14312;52.614;13.496;2023-04-15T15:27:01;2.95;;;2.67;;
26696;SDS011;14312;52.614;13.496;2023-04-15T15:29:47;3.13;;;2.92;;
26696;SDS011;14312;52.614;13.496;2023-04-15T15:32:33;4.05;;;2.55;;
26696;SDS011;14312;52.614;13.496;2023-04-15T15:35:19;2.60;;;2.40;;
26696;SDS011;14312;52.614;13.496;2023-04-15T15:38:07;2.70;;;2.50;;
26696;SDS011;14312;52.614;13.496;2023-04-15T15:40:56;2.58;;;2.38;;
26696;SDS011;14312;52.614;13.496;2023-04-15T15:43:41;3.35;;;2.80;;
26696;SDS011;14312;52.614;13.496;2023-04-15T15:46:27;2.60;;;2.40;;
26696;SDS011;14312;52.614;13.496;2023-04-15T15:49:15;2.70;;;2.50;;
26696;SDS011;14312;52.614;13.496;2023-04-15T15:52:01;2.40;;;2.20;;
26696;SDS011;14312;52.614;13.496;2023-04-15T15:54:47;2.40;;;2.20;;
26696;SDS011;14312;52.614;13.496;2023-04-15T15:57:33;2.70;;;2.50;;
26696;SDS011;14312;52.614;13.496;2023-04-15T16:00:19;2.28;;;2.13;;
26696;SDS011;14312;52.614;13.496;2023-04-15T16:03:05;2.10;;;1.98;;
26696;SDS011;14312;52.614;13.496;2023-04-15T16:05:51;2.70;;;2.50;;
26696;SDS011;14312;52.614;13.496;2023-04-15T16:08:37;2.47;;;2.20;;
26696;SDS011;14312;52.614;13.496;2023-04-15T16:11:23;2.08;;;1.95;;
26696;SDS011;14312;52.614;13.496;2023-04-15T16:14:09;2.55;;;2.22;;
26696;SDS011;14312;52.614;13.496;2023-04-15T16:16:55;2.28;;;2.08;;
26696;SDS011;14312;52.614;13.496;2023-04-15T16:19:42;2.20;;;2.10;;
26696;SDS011;14312;52.614;13.496;2023-04-15T16:22:29;2.03;;;1.83;;
26696;SDS011;14312;52.614;13.496;2023-04-15T16:25:14;2.30;;;2.10;;
26696;SDS011;14312;52.614;13.496;2023-04-15T16:28:00;2.60;;;2.40;;
26696;SDS011;14312;52.614;13.496;2023-04-15T16:30:46;2.60;;;2.40;;